MDT,Max TemperatureF,Mean TemperatureF,Min TemperatureF,Max Dew PointF,MeanDew PointF,Min DewpointF,Max Humidity, Mean Humidity, Min Humidity, Max Sea Level PressureIn, Mean Sea Level PressureIn, Min Sea Level PressureIn, Max VisibilityMiles, Mean VisibilityMiles, Min VisibilityMiles, Max Wind SpeedMPH, Mean Wind SpeedMPH, Max Gust SpeedMPH,PrecipitationIn, CloudCover, Events, WindDirDegrees
2013-3-1,49,42,35,39,35,32,92,79,66,30.35,30.32,30.26,10,10,10,18,9,23,T,8,Rain,188
2013-3-2,54,42,30,38,34,30,92,71,50,30.30,30.12,29.87,10,10,10,17,6,22,T,5,Rain,191
2013-3-3,42,32,21,39,26,17,93,70,47,30.22,29.90,29.72,10,8,0,24,9,33,0.14,6,Rain-Snow,267
2013-3-4,36,24,12,20,16,11,96,66,35,30.40,30.33,30.23,10,10,10,8,3,,0.00,3,,35
2013-3-5,37,28,19,24,16,12,77,59,40,30.24,30.13,29.98,10,10,10,18,7,23,T,4,,6
2013-3-6,38,33,27,32,28,23,100,86,72,29.96,29.77,29.68,10,6,0,12,3,44,0.08,7,Fog-Snow,20
2013-3-7,47,38,28,32,30,24,96,69,42,30.10,29.98,29.76,10,9,3,17,7,21,T,8,,192
2013-3-8,47,34,20,27,23,19,100,73,45,30.09,30.02,29.99,10,5,0,10,2,13,0.00,3,Fog,251
2013-3-9,49,35,21,28,24,21,100,69,38,30.40,30.25,30.07,10,10,10,13,3,15,0.00,1,,213
2013-3-10,47,34,21,28,26,21,96,69,42,30.42,30.30,30.15,10,10,10,16,6,20,T,5,,182
2013-3-11,49,38,27,29,21,13,85,54,23,30.26,30.20,30.16,10,10,10,17,5,23,0.00,4,,275
2013-3-12,36,32,27,34,30,21,100,88,75,30.25,30.14,30.04,10,5,1,17,2,21,0.21,7,Rain-Snow,194
2013-3-13,55,45,34,41,37,33,100,75,50,30.20,30.17,30.13,10,10,5,13,4,16,0.01,6,Rain,226
2013-3-14,54,42,30,39,35,30,100,77,54,30.18,30.09,29.98,10,10,4,7,1,22,0.00,4,,201
2013-3-15,57,46,34,34,31,28,89,64,38,30.08,30.02,29.95,10,10,10,18,8,30,T,6,,216
2013-3-16,49,39,28,37,33,28,100,81,61,30.03,29.88,29.64,10,10,2,22,6,26,0.02,6,Rain,191
2013-3-17,43,35,27,32,26,15,82,59,36,29.98,29.73,29.54,10,8,1,23,9,29,0.06,6,Rain-Snow,206
2013-3-18,42,33,24,27,21,17,85,62,39,30.09,29.97,29.88,10,9,2,17,6,23,0.01,6,Snow,232
2013-3-19,44,30,16,23,17,9,92,58,24,30.32,30.21,30.01,10,10,9,13,3,17,0.00,0,,136
2013-3-20,50,40,29,38,30,22,92,77,61,29.98,29.70,29.50,10,8,1,31,6,43,0.13,8,Rain-Snow,268
2013-3-21,39,33,27,31,22,15,82,60,37,29.99,29.84,29.64,10,10,8,21,9,28,T,7,Snow,220
2013-3-22,39,31,22,27,21,12,92,63,33,30.26,30.10,29.99,10,9,1,16,4,25,0.01,6,Snow,300
2013-3-23,37,27,16,20,16,11,92,65,38,30.39,30.32,30.18,10,9,2,14,4,22,T,3,Snow,22
2013-3-24,39,29,19,20,18,15,92,68,44,30.45,30.35,30.21,10,10,10,12,3,18,0.00,6,,18
2013-3-25,45,30,14,21,16,13,88,58,28,30.29,30.20,30.09,10,10,10,10,3,16,0.00,0,,163
2013-3-26,53,36,19,26,22,17,91,62,32,30.10,30.04,29.98,10,10,10,9,3,26,0.00,1,,312
2013-3-27,55,39,22,33,27,20,96,66,35,30.06,30.03,30.00,10,10,10,16,4,21,0.00,4,,165
2013-3-28,55,44,33,42,36,32,100,76,51,30.11,30.07,30.04,10,7,0,17,3,21,0.04,5,Fog-Rain,356
2013-3-29,53,43,33,43,37,33,100,77,54,30.23,30.15,30.08,10,8,2,15,3,18,0.19,6,Rain,100
2013-3-30,61,43,25,38,30,25,100,66,32,30.32,30.22,30.14,10,7,1,16,4,38,0.00,1,,175
2013-3-31,64,44,24,33,29,24,100,64,27,30.16,30.10,30.01,10,10,10,7,2,,0.00,0,,346